createdAt,value
2023-03-11T00:00:24.470Z,97614.03
2023-03-11T00:02:53.769Z,97620.22
2023-03-11T00:05:29.878Z,97621.97
2023-03-11T00:07:56.448Z,97618.59
2023-03-11T00:10:28.615Z,97641.13
2023-03-11T00:12:56.758Z,97646.78
2023-03-11T00:15:23.108Z,97639.63
2023-03-11T00:17:49.904Z,97658.38
2023-03-11T00:20:31.173Z,97654.50
2023-03-11T00:22:58.375Z,97681.94
2023-03-11T00:25:26.994Z,97690.28
2023-03-11T00:27:53.471Z,97679.72
2023-03-11T00:30:20.685Z,97684.75
2023-03-11T00:32:48.692Z,97692.41
2023-03-11T00:35:18.826Z,97707.16
2023-03-11T00:37:47.232Z,97719.53
2023-03-11T00:40:16.633Z,97721.03
2023-03-11T00:42:43.185Z,97736.41
2023-03-11T00:45:09.990Z,97742.88
2023-03-11T00:47:36.338Z,97738.88
2023-03-11T00:50:02.650Z,97750.47
2023-03-11T00:52:29.042Z,97770.38
2023-03-11T00:54:55.866Z,97779.75
2023-03-11T00:57:22.225Z,97778.78
2023-03-11T00:59:48.517Z,97784.25
2023-03-11T01:02:14.805Z,97782.59
2023-03-11T01:04:41.207Z,97796.19
2023-03-11T01:07:08.655Z,97794.44
2023-03-11T01:09:36.274Z,97792.44
2023-03-11T01:12:02.839Z,97790.69
2023-03-11T01:14:29.226Z,97809.56
2023-03-11T01:16:55.580Z,97809.16
2023-03-11T01:19:21.857Z,97810.72
2023-03-11T01:21:48.276Z,97805.81
2023-03-11T01:24:14.729Z,97803.38
2023-03-11T01:26:41.089Z,97822.22
2023-03-11T01:29:07.445Z,97817.94
2023-03-11T01:31:33.714Z,97835.00
2023-03-11T01:33:59.990Z,97825.47
2023-03-11T01:36:26.280Z,97844.19
2023-03-11T01:38:52.560Z,97827.03
2023-03-11T01:41:18.916Z,97831.69
2023-03-11T01:43:45.128Z,97848.75
2023-03-11T01:46:30.927Z,97851.78
2023-03-11T01:48:58.189Z,97868.78
2023-03-11T01:51:30.278Z,97877.03
2023-03-11T01:53:59.219Z,97875.56
2023-03-11T01:56:25.799Z,97880.09
2023-03-11T01:58:53.895Z,97881.69
2023-03-11T02:01:22.816Z,97878.59
2023-03-11T02:03:49.270Z,97898.38
2023-03-11T02:06:24.396Z,97911.19
2023-03-11T02:08:50.970Z,97911.34
2023-03-11T02:11:26.957Z,97916.63
2023-03-11T02:13:56.719Z,97914.94
2023-03-11T02:16:23.176Z,97919.97
2023-03-11T02:18:49.540Z,97925.41
2023-03-11T02:21:24.925Z,97935.16
2023-03-11T02:24:09.809Z,97937.38
2023-03-11T02:26:44.413Z,97940.75
2023-03-11T02:29:12.048Z,97946.28
2023-03-11T02:31:43.026Z,97952.16
2023-03-11T02:34:18.716Z,97953.66
2023-03-11T02:36:45.004Z,97962.38
2023-03-11T02:39:11.311Z,97943.78
2023-03-11T02:41:40.615Z,97971.66
2023-03-11T02:44:10.467Z,97972.31
2023-03-11T02:46:39.821Z,97972.78
2023-03-11T02:49:06.263Z,97985.38
2023-03-11T02:51:32.543Z,97989.75
2023-03-11T02:54:04.111Z,97995.59
2023-03-11T02:56:30.911Z,97988.75
2023-03-11T02:58:57.524Z,97999.78
2023-03-11T03:01:23.896Z,97992.66
2023-03-11T03:03:50.450Z,98011.25
2023-03-11T03:06:16.843Z,98005.09
2023-03-11T03:08:43.217Z,98016.59
2023-03-11T03:11:09.567Z,98010.13
2023-03-11T03:13:35.846Z,98003.69
2023-03-11T03:16:02.577Z,98024.66
2023-03-11T03:18:29.001Z,98028.38
2023-03-11T03:20:55.712Z,98035.81
2023-03-11T03:23:22.085Z,98020.63
2023-03-11T03:25:48.488Z,98037.00
2023-03-11T03:28:14.908Z,98032.19
2023-03-11T03:30:41.636Z,98052.16
2023-03-11T03:33:08.888Z,98044.22
2023-03-11T03:35:35.309Z,98046.72
2023-03-11T03:38:01.949Z,98038.97
2023-03-11T03:40:28.345Z,98039.50
2023-03-11T03:42:54.700Z,98053.84
2023-03-11T03:45:21.016Z,98049.75
2023-03-11T03:47:47.373Z,98055.94
2023-03-11T03:50:14.015Z,98074.72
2023-03-11T03:52:40.323Z,98068.38
2023-03-11T03:55:06.976Z,98075.25
2023-03-11T03:57:33.261Z,98075.63
2023-03-11T03:59:59.617Z,98080.28
2023-03-11T04:02:26.016Z,98091.44
2023-03-11T04:04:52.498Z,98078.03
2023-03-11T04:07:18.959Z,98084.63
2023-03-11T04:09:45.277Z,98090.13
2023-03-11T04:12:14.788Z,98094.78
2023-03-11T04:14:41.649Z,98083.84
2023-03-11T04:17:10.050Z,98107.28
2023-03-11T04:19:36.486Z,98095.63
2023-03-11T04:22:02.940Z,98109.38
2023-03-11T04:24:29.247Z,98101.66
2023-03-11T04:26:55.697Z,98117.44
2023-03-11T04:29:22.032Z,98122.97
2023-03-11T04:31:48.427Z,98129.00
2023-03-11T04:34:14.796Z,98123.78
2023-03-11T04:36:41.381Z,98129.97
2023-03-11T04:39:07.946Z,98110.72
2023-03-11T04:41:34.278Z,98127.59
2023-03-11T04:44:00.722Z,98129.16
2023-03-11T04:46:27.250Z,98133.63
2023-03-11T04:48:53.691Z,98128.91
2023-03-11T04:51:20.005Z,98137.00
2023-03-11T04:53:46.346Z,98138.38
2023-03-11T04:56:12.744Z,98133.09
2023-03-11T04:58:39.058Z,98137.22
2023-03-11T05:01:05.509Z,98138.84
2023-03-11T05:03:31.927Z,98154.88
2023-03-11T05:05:58.364Z,98145.72
2023-03-11T05:08:24.659Z,98158.69
2023-03-11T05:10:52.392Z,98172.06
2023-03-11T05:13:19.688Z,98167.94
2023-03-11T05:15:47.075Z,98177.16
2023-03-11T05:18:14.068Z,98195.84
2023-03-11T05:20:40.644Z,98198.94
2023-03-11T05:23:07.024Z,98195.09
2023-03-11T05:25:33.440Z,98188.41
2023-03-11T05:27:59.766Z,98203.69
2023-03-11T05:30:26.153Z,98200.84
2023-03-11T05:32:52.584Z,98208.56
2023-03-11T05:35:19.041Z,98210.97
2023-03-11T05:37:45.680Z,98205.56
2023-03-11T05:40:12.334Z,98214.88
2023-03-11T05:42:38.944Z,98212.56
2023-03-11T05:45:05.557Z,98203.88
2023-03-11T05:47:32.306Z,98199.06
2023-03-11T05:49:58.610Z,98219.72
2023-03-11T05:52:25.052Z,98227.44
2023-03-11T05:54:52.249Z,98229.19
2023-03-11T05:57:19.795Z,98244.03
2023-03-11T05:59:46.312Z,98231.09
2023-03-11T06:02:13.954Z,98236.72
2023-03-11T06:04:40.488Z,98239.94
2023-03-11T06:07:07.031Z,98239.09
2023-03-11T06:09:33.454Z,98247.34
2023-03-11T06:12:00.044Z,98243.28
2023-03-11T06:14:26.438Z,98246.59
2023-03-11T06:16:52.752Z,98239.72
2023-03-11T06:19:19.244Z,98256.94
2023-03-11T06:21:45.548Z,98250.72
2023-03-11T06:24:11.949Z,98257.34
2023-03-11T06:26:38.378Z,98256.56
2023-03-11T06:29:04.773Z,98255.06
2023-03-11T06:31:31.455Z,98269.44
2023-03-11T06:33:57.802Z,98274.50
2023-03-11T06:36:25.076Z,98289.75
2023-03-11T06:38:52.825Z,98290.25
2023-03-11T06:41:19.243Z,98290.06
2023-03-11T06:43:45.895Z,98285.69
2023-03-11T06:46:16.090Z,98291.50
2023-03-11T06:48:43.170Z,98274.09
2023-03-11T06:51:10.212Z,98287.53
2023-03-11T06:53:36.694Z,98302.81
2023-03-11T06:56:13.884Z,98314.44
2023-03-11T06:58:41.987Z,98313.53
2023-03-11T07:01:15.184Z,98316.69
2023-03-11T07:03:42.792Z,98329.75
2023-03-11T07:06:18.098Z,98322.03
2023-03-11T07:08:46.407Z,98328.19
2023-03-11T07:11:15.710Z,98336.53
2023-03-11T07:13:42.468Z,98322.44
2023-03-11T07:16:15.792Z,98336.69
2023-03-11T07:18:43.314Z,98343.94
2023-03-11T07:21:11.550Z,98347.50
2023-03-11T07:23:38.032Z,98328.28
2023-03-11T07:26:04.515Z,98343.16
2023-03-11T07:28:31.069Z,98349.16
2023-03-11T07:30:57.694Z,98354.34
2023-03-11T07:33:24.420Z,98355.53
2023-03-11T07:35:51.685Z,98350.41
2023-03-11T07:38:18.223Z,98359.19
2023-03-11T07:40:44.910Z,98362.56
2023-03-11T07:43:11.574Z,98357.16
2023-03-11T07:45:38.070Z,98352.84
2023-03-11T07:48:04.911Z,98372.63
2023-03-11T07:50:31.255Z,98373.72
2023-03-11T07:52:57.639Z,98372.19
2023-03-11T07:55:23.951Z,98372.75
2023-03-11T07:57:50.256Z,98389.03
2023-03-11T08:00:17.164Z,98388.44
2023-03-11T08:02:43.677Z,98388.13
2023-03-11T08:05:10.696Z,98387.56
2023-03-11T08:07:37.111Z,98401.59
2023-03-11T08:10:03.571Z,98400.94
2023-03-11T08:12:30.007Z,98400.13
2023-03-11T08:14:56.552Z,98412.38
2023-03-11T08:17:22.931Z,98412.28
2023-03-11T08:19:50.040Z,98427.78
2023-03-11T08:22:16.617Z,98433.91
2023-03-11T08:24:43.020Z,98432.00
2023-03-11T08:27:09.458Z,98434.50
2023-03-11T08:29:36.011Z,98443.09
2023-03-11T08:32:03.690Z,98439.16
2023-03-11T08:34:30.549Z,98437.03
2023-03-11T08:36:57.103Z,98436.31
2023-03-11T08:39:23.409Z,98444.50
2023-03-11T08:41:49.844Z,98446.16
2023-03-11T08:44:16.222Z,98465.66
2023-03-11T08:46:42.741Z,98469.03
2023-03-11T08:49:09.315Z,98471.09
2023-03-11T08:51:35.945Z,98470.69
2023-03-11T08:54:03.818Z,98476.34
2023-03-11T08:56:30.301Z,98472.00
2023-03-11T08:58:56.773Z,98483.34
2023-03-11T09:01:23.188Z,98473.28
2023-03-11T09:03:49.712Z,98497.41
2023-03-11T09:06:17.127Z,98485.31
2023-03-11T09:08:45.785Z,98484.16
2023-03-11T09:11:15.883Z,98494.72
2023-03-11T09:13:43.026Z,98486.28
2023-03-11T09:16:15.148Z,98501.94
2023-03-11T09:18:41.997Z,98501.75
2023-03-11T09:21:08.908Z,98513.47
2023-03-11T09:23:35.471Z,98500.28
2023-03-11T09:26:01.828Z,98506.56
2023-03-11T09:28:28.385Z,98510.31
2023-03-11T09:30:55.157Z,98520.69
2023-03-11T09:33:21.786Z,98520.81
2023-03-11T09:35:48.286Z,98516.00
2023-03-11T09:38:14.895Z,98528.44
2023-03-11T09:40:59.559Z,98538.38
2023-03-11T09:43:41.834Z,98534.38
2023-03-11T09:46:28.691Z,98536.91
2023-03-11T09:49:18.236Z,98549.25
2023-03-11T09:51:53.578Z,98549.34
2023-03-11T09:54:20.267Z,98539.00
2023-03-11T09:56:46.788Z,98554.63
2023-03-11T09:59:19.179Z,98550.50
2023-03-11T10:01:48.981Z,98532.28
2023-03-11T10:04:33.029Z,98556.38
2023-03-11T10:07:03.021Z,98547.13
2023-03-11T10:09:46.505Z,98562.50
2023-03-11T10:12:23.351Z,98567.59
2023-03-11T10:15:14.884Z,98573.66
2023-03-11T10:18:05.466Z,98579.03
2023-03-11T10:20:55.621Z,98578.34
2023-03-11T10:23:30.378Z,98582.16
2023-03-11T10:26:05.618Z,98579.16
2023-03-11T10:28:54.753Z,98585.59
2023-03-11T10:31:29.459Z,98574.81
2023-03-11T10:34:02.058Z,98559.69
2023-03-11T10:37:01.272Z,98574.22
2023-03-11T10:39:27.973Z,98577.06
2023-03-11T10:41:57.660Z,98570.78
2023-03-11T10:44:40.804Z,98585.72
2023-03-11T10:47:17.145Z,98577.25
2023-03-11T10:49:43.453Z,98582.53
2023-03-11T10:52:10.096Z,98577.56
2023-03-11T10:54:38.835Z,98584.09
2023-03-11T10:57:20.309Z,98581.63
2023-03-11T10:59:49.676Z,98574.44
2023-03-11T11:02:24.565Z,98587.75
2023-03-11T11:05:07.227Z,98573.81
2023-03-11T11:07:37.496Z,98589.44
2023-03-11T11:10:17.423Z,98587.41
2023-03-11T11:13:16.871Z,98584.19
2023-03-11T11:15:55.344Z,98572.97
2023-03-11T11:18:45.515Z,98585.25
2023-03-11T11:21:27.641Z,98588.66
2023-03-11T11:24:23.283Z,98590.13
2023-03-11T11:27:11.503Z,98603.56
2023-03-11T11:29:38.460Z,98584.44
2023-03-11T11:32:19.245Z,98596.28
2023-03-11T11:35:02.012Z,98602.19
2023-03-11T11:37:32.157Z,98602.63
2023-03-11T11:40:03.285Z,98607.84
2023-03-11T11:42:31.545Z,98599.34
2023-03-11T11:45:05.784Z,98609.94
2023-03-11T11:47:39.189Z,98612.91
2023-03-11T11:50:13.249Z,98593.94
2023-03-11T11:52:47.845Z,98593.44
2023-03-11T11:55:22.515Z,98594.47
2023-03-11T11:57:49.800Z,98607.94
2023-03-11T12:00:39.553Z,98615.22
2023-03-11T12:03:19.209Z,98607.91
2023-03-11T12:05:58.176Z,98616.72
2023-03-11T12:08:56.452Z,98615.88
2023-03-11T12:11:54.883Z,98619.50
2023-03-11T12:14:33.196Z,98608.69
2023-03-11T12:17:04.117Z,98608.00
2023-03-11T12:19:35.645Z,98603.47
2023-03-11T12:22:16.306Z,98601.25
2023-03-11T12:24:54.575Z,98580.44
2023-03-11T12:27:27.650Z,98572.94
2023-03-11T12:30:01.382Z,98577.22
2023-03-11T12:32:42.018Z,98582.25
2023-03-11T12:35:35.374Z,98588.53
2023-03-11T12:38:16.903Z,98598.94
2023-03-11T12:40:43.476Z,98598.03
2023-03-11T12:43:48.745Z,98602.06
2023-03-11T12:46:16.889Z,98596.75
2023-03-11T12:48:50.653Z,98592.50
2023-03-11T12:51:26.273Z,98602.22
2023-03-11T12:53:54.062Z,98588.91
2023-03-11T12:56:43.664Z,98590.00
2023-03-11T12:59:19.699Z,98596.59
2023-03-11T13:02:04.908Z,98602.09
2023-03-11T13:05:14.161Z,98596.16
2023-03-11T13:07:45.511Z,98596.06
2023-03-11T13:10:20.314Z,98592.56
2023-03-11T13:12:51.551Z,98600.03
2023-03-11T13:15:20.794Z,98596.47
2023-03-11T13:17:59.602Z,98591.00
2023-03-11T13:20:41.026Z,98602.63
2023-03-11T13:23:11.881Z,98602.22
2023-03-11T13:25:41.842Z,98611.66
2023-03-11T13:28:45.553Z,98615.38
2023-03-11T13:31:39.039Z,98617.75
2023-03-11T13:34:24.501Z,98623.69
2023-03-11T13:37:08.144Z,98623.19
2023-03-11T13:40:16.065Z,98624.72
2023-03-11T13:42:46.641Z,98633.16
2023-03-11T13:45:25.556Z,98629.69
2023-03-11T13:47:54.290Z,98630.25
2023-03-11T13:50:28.214Z,98634.66
2023-03-11T13:52:56.861Z,98638.13
2023-03-11T13:55:32.334Z,98636.78
2023-03-11T13:57:58.575Z,98646.81
2023-03-11T14:00:27.755Z,98645.38
2023-03-11T14:02:59.701Z,98650.75
2023-03-11T14:05:30.001Z,98641.31
2023-03-11T14:08:20.386Z,98654.03
2023-03-11T14:11:00.985Z,98646.09
2023-03-11T14:13:29.588Z,98642.63
2023-03-11T14:16:10.043Z,98645.16
2023-03-11T14:18:42.046Z,98641.38
2023-03-11T14:21:17.118Z,98650.69
2023-03-11T14:23:47.467Z,98658.91
2023-03-11T14:26:19.380Z,98657.31
2023-03-11T14:28:50.993Z,98665.72
2023-03-11T14:31:37.691Z,98665.06
2023-03-11T14:34:09.920Z,98669.72
2023-03-11T14:36:46.742Z,98666.09
2023-03-11T14:39:35.505Z,98670.50
2023-03-11T14:42:25.323Z,98682.19
2023-03-11T14:45:13.911Z,98687.78
2023-03-11T14:47:46.609Z,98690.00
2023-03-11T14:50:17.397Z,98688.81
2023-03-11T14:52:50.323Z,98684.59
2023-03-11T14:55:26.919Z,98680.59
2023-03-11T14:58:25.375Z,98689.19
2023-03-11T15:01:09.147Z,98693.06
2023-03-11T15:03:39.483Z,98670.16
2023-03-11T15:06:08.516Z,98682.22
2023-03-11T15:08:42.951Z,98679.69
2023-03-11T15:11:12.259Z,98673.84
2023-03-11T15:13:41.498Z,98668.94
2023-03-11T15:16:31.617Z,98670.47
2023-03-11T15:19:27.459Z,98675.16
2023-03-11T15:21:55.514Z,98672.72
2023-03-11T15:24:27.216Z,98669.94
2023-03-11T15:27:08.762Z,98642.69
2023-03-11T15:29:36.133Z,98646.69
2023-03-11T15:32:25.602Z,98651.00
2023-03-11T15:35:03.668Z,98662.78
2023-03-11T15:37:30.537Z,98660.69
2023-03-11T15:40:09.610Z,98672.03
2023-03-11T15:42:36.112Z,98664.13
2023-03-11T15:45:11.158Z,98685.97
2023-03-11T15:47:38.414Z,98677.44
2023-03-11T15:50:34.471Z,98691.47
2023-03-11T15:53:06.689Z,98688.03
2023-03-11T15:55:33.012Z,98682.34
2023-03-11T15:58:05.957Z,98689.31
2023-03-11T16:00:32.691Z,98694.09
2023-03-11T16:02:59.008Z,98703.22
2023-03-11T16:05:25.928Z,98693.13
2023-03-11T16:07:52.235Z,98701.97
2023-03-11T16:10:22.367Z,98713.91
2023-03-11T16:12:48.872Z,98705.84
2023-03-11T16:15:23.990Z,98721.50
2023-03-11T16:17:53.929Z,98722.66
2023-03-11T16:20:22.017Z,98732.69
2023-03-11T16:22:50.155Z,98736.50
2023-03-11T16:25:43.181Z,98732.09
2023-03-11T16:28:13.209Z,98732.63
2023-03-11T16:30:39.765Z,98731.09
2023-03-11T16:33:06.219Z,98739.00
2023-03-11T16:35:33.213Z,98728.47
2023-03-11T16:37:59.804Z,98740.53
2023-03-11T16:40:27.366Z,98750.56
2023-03-11T16:43:06.328Z,98744.03
2023-03-11T16:45:33.032Z,98753.81
2023-03-11T16:47:59.344Z,98742.44
2023-03-11T16:50:26.157Z,98746.25
2023-03-11T16:52:53.912Z,98748.16
2023-03-11T16:55:20.486Z,98763.28
2023-03-11T16:57:46.948Z,98758.72
2023-03-11T17:00:14.510Z,98741.97
2023-03-11T17:02:41.214Z,98764.53
2023-03-11T17:05:08.617Z,98742.84
2023-03-11T17:07:36.969Z,98755.94
2023-03-11T17:10:05.301Z,98769.16
2023-03-11T17:12:31.688Z,98763.66
2023-03-11T17:14:58.074Z,98752.91
2023-03-11T17:17:24.549Z,98767.63
2023-03-11T17:19:50.940Z,98760.28
2023-03-11T17:22:17.443Z,98763.13
2023-03-11T17:24:43.850Z,98750.00
2023-03-11T17:27:10.293Z,98772.47
2023-03-11T17:29:36.610Z,98776.97
2023-03-11T17:32:03.829Z,98776.44
2023-03-11T17:34:30.253Z,98770.06
2023-03-11T17:36:56.647Z,98772.97
2023-03-11T17:39:23.141Z,98786.97
2023-03-11T17:41:49.808Z,98781.34
2023-03-11T17:44:16.230Z,98797.97
2023-03-11T17:46:42.654Z,98792.22
2023-03-11T17:49:13.888Z,98811.38
2023-03-11T17:51:40.688Z,98815.22
2023-03-11T17:54:07.029Z,98797.63
2023-03-11T17:56:33.411Z,98822.59
2023-03-11T17:58:59.788Z,98803.50
2023-03-11T18:01:27.258Z,98828.38
2023-03-11T18:03:54.321Z,98817.47
2023-03-11T18:06:21.158Z,98811.91
2023-03-11T18:08:48.257Z,98821.41
2023-03-11T18:11:19.183Z,98814.75
2023-03-11T18:13:46.161Z,98820.91
2023-03-11T18:16:15.805Z,98822.84
2023-03-11T18:18:43.106Z,98826.59
2023-03-11T18:21:16.291Z,98835.31
2023-03-11T18:23:43.411Z,98845.06
2023-03-11T18:26:13.915Z,98834.28
2023-03-11T18:28:40.566Z,98834.53
2023-03-11T18:31:18.353Z,98834.63
2023-03-11T18:33:50.184Z,98840.59
2023-03-11T18:36:20.192Z,98835.47
2023-03-11T18:38:47.006Z,98833.03
2023-03-11T18:41:13.688Z,98829.75
2023-03-11T18:43:40.131Z,98846.25
2023-03-11T18:46:08.621Z,98850.00
2023-03-11T18:48:35.569Z,98855.25
2023-03-11T18:51:02.348Z,98859.59
2023-03-11T18:53:28.718Z,98855.56
2023-03-11T18:56:00.163Z,98853.22
2023-03-11T18:58:26.604Z,98849.13
2023-03-11T19:00:53.039Z,98857.00
2023-03-11T19:03:19.569Z,98866.38
2023-03-11T19:05:48.090Z,98861.41
2023-03-11T19:08:16.372Z,98857.13
2023-03-11T19:10:43.491Z,98862.41
2023-03-11T19:13:10.441Z,98871.09
2023-03-11T19:15:41.170Z,98873.69
2023-03-11T19:18:08.735Z,98856.78
2023-03-11T19:20:35.584Z,98870.31
2023-03-11T19:23:02.307Z,98870.41
2023-03-11T19:25:28.838Z,98873.00
2023-03-11T19:27:55.444Z,98862.88
2023-03-11T19:30:21.841Z,98859.50
2023-03-11T19:32:48.256Z,98857.00
2023-03-11T19:35:14.812Z,98861.34
2023-03-11T19:37:41.131Z,98848.00
2023-03-11T19:40:11.267Z,98870.09
2023-03-11T19:42:37.989Z,98864.25
2023-03-11T19:45:05.032Z,98879.78
2023-03-11T19:47:31.372Z,98873.72
2023-03-11T19:49:57.805Z,98873.06
2023-03-11T19:52:24.322Z,98872.53
2023-03-11T19:54:51.025Z,98867.47
2023-03-11T19:57:17.482Z,98873.59
2023-03-11T19:59:43.862Z,98883.84
2023-03-11T20:02:13.594Z,98882.88
2023-03-11T20:04:43.076Z,98894.19
2023-03-11T20:07:09.859Z,98888.22
2023-03-11T20:09:36.225Z,98897.72
2023-03-11T20:12:02.578Z,98891.84
2023-03-11T20:14:28.957Z,98887.53
2023-03-11T20:16:55.305Z,98896.06
2023-03-11T20:19:21.988Z,98880.91
2023-03-11T20:21:48.736Z,98893.81
2023-03-11T20:24:15.311Z,98898.16
2023-03-11T20:26:41.631Z,98895.75
2023-03-11T20:29:08.429Z,98891.53
2023-03-11T20:31:35.285Z,98906.19
2023-03-11T20:34:02.456Z,98895.91
2023-03-11T20:36:31.342Z,98899.38
2023-03-11T20:38:57.718Z,98875.47
2023-03-11T20:41:25.768Z,98898.50
2023-03-11T20:43:53.929Z,98896.19
2023-03-11T20:46:20.677Z,98898.78
2023-03-11T20:48:47.637Z,98897.22
2023-03-11T20:51:16.243Z,98911.78
2023-03-11T20:53:42.648Z,98905.03
2023-03-11T20:56:11.656Z,98908.44
2023-03-11T20:58:38.225Z,98901.75
2023-03-11T21:01:15.972Z,98902.63
2023-03-11T21:03:43.021Z,98900.16
2023-03-11T21:06:34.170Z,98909.56
2023-03-11T21:09:03.849Z,98916.50
2023-03-11T21:11:30.916Z,98895.31
2023-03-11T21:13:57.311Z,98905.63
2023-03-11T21:16:24.478Z,98920.13
2023-03-11T21:18:50.980Z,98915.97
2023-03-11T21:21:18.213Z,98908.41
2023-03-11T21:23:46.928Z,98920.38
2023-03-11T21:26:15.068Z,98921.19
2023-03-11T21:28:41.912Z,98914.38
2023-03-11T21:31:11.610Z,98929.03
2023-03-11T21:33:39.393Z,98939.38
2023-03-11T21:36:06.847Z,98915.56
2023-03-11T21:38:33.436Z,98921.53
2023-03-11T21:41:14.430Z,98933.69
2023-03-11T21:43:41.608Z,98933.91
2023-03-11T21:46:10.291Z,98934.00
2023-03-11T21:48:37.026Z,98937.44
2023-03-11T21:51:04.261Z,98948.56
2023-03-11T21:53:30.816Z,98937.53
2023-03-11T21:55:57.781Z,98945.31
2023-03-11T21:58:24.077Z,98937.63
2023-03-11T22:00:50.687Z,98932.59
2023-03-11T22:03:17.445Z,98942.78
2023-03-11T22:05:43.870Z,98931.63
2023-03-11T22:08:10.496Z,98942.91
2023-03-11T22:10:38.137Z,98951.47
2023-03-11T22:13:05.233Z,98950.78
2023-03-11T22:15:31.602Z,98958.47
2023-03-11T22:17:57.926Z,98938.97
2023-03-11T22:20:24.593Z,98948.50
2023-03-11T22:22:50.993Z,98953.44
2023-03-11T22:25:17.470Z,98956.59
2023-03-11T22:27:43.797Z,98937.78
2023-03-11T22:30:10.970Z,98960.88
2023-03-11T22:32:37.418Z,98960.13
2023-03-11T22:35:04.265Z,98957.75
2023-03-11T22:37:31.346Z,98959.50
2023-03-11T22:39:57.779Z,98971.56
2023-03-11T22:42:24.171Z,98955.44
2023-03-11T22:44:50.945Z,98949.50
2023-03-11T22:47:17.436Z,98949.59
2023-03-11T22:49:43.934Z,98953.03
2023-03-11T22:52:10.412Z,98948.00
2023-03-11T22:54:37.461Z,98947.19
2023-03-11T22:57:03.945Z,98956.69
2023-03-11T22:59:30.250Z,98950.66
2023-03-11T23:01:57.166Z,98964.31
2023-03-11T23:04:23.829Z,98954.91
2023-03-11T23:06:50.205Z,98962.63
2023-03-11T23:09:16.602Z,98962.72
2023-03-11T23:11:42.913Z,98951.69
2023-03-11T23:14:09.331Z,98944.09
2023-03-11T23:16:35.701Z,98956.88
2023-03-11T23:19:02.137Z,98969.69
2023-03-11T23:21:31.619Z,98962.09
2023-03-11T23:23:59.877Z,98981.72
2023-03-11T23:26:26.668Z,98975.75
2023-03-11T23:28:53.545Z,98979.25
2023-03-11T23:31:22.749Z,98970.72
2023-03-11T23:33:49.535Z,98958.88
2023-03-11T23:36:19.511Z,98966.53
2023-03-11T23:38:47.217Z,98948.75
2023-03-11T23:41:16.259Z,98967.50
2023-03-11T23:43:43.531Z,98954.03
2023-03-11T23:46:10.553Z,98958.44
2023-03-11T23:48:38.194Z,98988.31
2023-03-11T23:51:05.303Z,98975.69
2023-03-11T23:53:32.706Z,98983.28
2023-03-11T23:55:59.300Z,98980.78
2023-03-11T23:58:25.635Z,98980.72
